sensor_id;sensor_type;location;lat;lon;timestamp;pressure;altitude;pressure_sealevel;temperature;humidity
7180;BME280;3631;42.152;24.756;2023-02-15T00:00:20;100637.91;;;5.25;64.73
7180;BME280;3631;42.152;24.756;2023-02-15T00:02:47;100637.09;;;5.27;65.07
7180;BME280;3631;42.152;24.756;2023-02-15T00:05:14;100634.41;;;5.17;65.25
7180;BME280;3631;42.152;24.756;2023-02-15T00:07:41;100635.22;;;5.13;65.67
7180;BME280;3631;42.152;24.756;2023-02-15T00:10:08;100638.66;;;5.15;65.56
7180;BME280;3631;42.152;24.756;2023-02-15T00:12:38;100642.13;;;5.17;65.36
7180;BME280;3631;42.152;24.756;2023-02-15T00:15:06;100641.13;;;5.04;65.99
7180;BME280;3631;42.152;24.756;2023-02-15T00:17:33;100649.50;;;4.88;66.89
7180;BME280;3631;42.152;24.756;2023-02-15T00:20:00;100647.91;;;4.96;67.08
7180;BME280;3631;42.152;24.756;2023-02-15T00:22:26;100639.31;;;4.98;67.10
7180;BME280;3631;42.152;24.756;2023-02-15T00:24:53;100641.94;;;5.01;67.18
7180;BME280;3631;42.152;24.756;2023-02-15T00:27:20;100642.84;;;5.05;67.23
7180;BME280;3631;42.152;24.756;2023-02-15T00:29:49;100647.09;;;5.01;67.43
7180;BME280;3631;42.152;24.756;2023-02-15T00:32:16;100623.75;;;4.86;67.82
7180;BME280;3631;42.152;24.756;2023-02-15T00:34:43;100635.00;;;4.93;67.95
7180;BME280;3631;42.152;24.756;2023-02-15T00:37:09;100642.72;;;4.94;68.25
7180;BME280;3631;42.152;24.756;2023-02-15T00:39:36;100642.63;;;4.88;68.20
7180;BME280;3631;42.152;24.756;2023-02-15T00:42:03;100640.06;;;4.88;68.53
7180;BME280;3631;42.152;24.756;2023-02-15T00:44:30;100641.75;;;4.83;68.68
7180;BME280;3631;42.152;24.756;2023-02-15T00:46:58;100652.03;;;4.83;68.65
7180;BME280;3631;42.152;24.756;2023-02-15T00:49:25;100642.59;;;4.84;68.89
7180;BME280;3631;42.152;24.756;2023-02-15T00:51:52;100650.34;;;4.88;68.34
7180;BME280;3631;42.152;24.756;2023-02-15T00:54:19;100651.13;;;4.81;68.66
7180;BME280;3631;42.152;24.756;2023-02-15T00:56:46;100634.91;;;4.85;68.90
7180;BME280;3631;42.152;24.756;2023-02-15T00:59:13;100640.81;;;4.80;68.60
7180;BME280;3631;42.152;24.756;2023-02-15T01:01:40;100638.19;;;4.75;68.97
7180;BME280;3631;42.152;24.756;2023-02-15T01:04:08;100633.06;;;4.77;69.38
7180;BME280;3631;42.152;24.756;2023-02-15T01:06:35;100634.84;;;4.81;69.19
7180;BME280;3631;42.152;24.756;2023-02-15T01:09:02;100634.84;;;4.81;69.32
7180;BME280;3631;42.152;24.756;2023-02-15T01:11:29;100634.81;;;4.79;69.33
7180;BME280;3631;42.152;24.756;2023-02-15T01:13:58;100630.53;;;4.80;69.15
7180;BME280;3631;42.152;24.756;2023-02-15T01:16:27;100619.34;;;4.76;69.46
7180;BME280;3631;42.152;24.756;2023-02-15T01:18:54;100620.28;;;4.81;69.41
7180;BME280;3631;42.152;24.756;2023-02-15T01:21:24;100621.88;;;4.71;69.84
7180;BME280;3631;42.152;24.756;2023-02-15T01:23:52;100615.06;;;4.77;69.50
7180;BME280;3631;42.152;24.756;2023-02-15T01:26:19;100608.22;;;4.77;69.96
7180;BME280;3631;42.152;24.756;2023-02-15T01:28:46;100609.94;;;4.78;69.70
7180;BME280;3631;42.152;24.756;2023-02-15T01:31:14;100592.59;;;4.63;69.88
7180;BME280;3631;42.152;24.756;2023-02-15T01:33:42;100598.75;;;4.73;69.83
7180;BME280;3631;42.152;24.756;2023-02-15T01:36:09;100609.19;;;4.85;69.52
7180;BME280;3631;42.152;24.756;2023-02-15T01:38:38;100613.47;;;4.88;69.42
7180;BME280;3631;42.152;24.756;2023-02-15T01:41:06;100617.81;;;4.90;68.94
7180;BME280;3631;42.152;24.756;2023-02-15T01:43:54;100618.69;;;4.92;69.04
7180;BME280;3631;42.152;24.756;2023-02-15T01:46:26;100627.25;;;4.91;68.99
7180;BME280;3631;42.152;24.756;2023-02-15T01:48:56;100605.59;;;4.74;68.93
7180;BME280;3631;42.152;24.756;2023-02-15T01:51:27;100622.09;;;4.90;68.99
7180;BME280;3631;42.152;24.756;2023-02-15T01:53:59;100628.91;;;4.85;68.89
7180;BME280;3631;42.152;24.756;2023-02-15T01:56:30;100632.31;;;4.87;68.97
7180;BME280;3631;42.152;24.756;2023-02-15T01:58:59;100639.25;;;4.91;68.35
7180;BME280;3631;42.152;24.756;2023-02-15T02:01:29;100638.44;;;4.93;68.34
7180;BME280;3631;42.152;24.756;2023-02-15T02:04:00;100644.47;;;4.95;68.31
7180;BME280;3631;42.152;24.756;2023-02-15T02:06:29;100652.16;;;4.94;68.37
7180;BME280;3631;42.152;24.756;2023-02-15T02:08:59;100646.13;;;4.92;68.30
7180;BME280;3631;42.152;24.756;2023-02-15T02:11:25;100644.34;;;4.88;68.31
7180;BME280;3631;42.152;24.756;2023-02-15T02:13:54;100647.78;;;4.88;68.26
7180;BME280;3631;42.152;24.756;2023-02-15T02:16:24;100643.41;;;4.81;69.04
7180;BME280;3631;42.152;24.756;2023-02-15T02:19:11;100647.59;;;4.71;69.50
7180;BME280;3631;42.152;24.756;2023-02-15T02:22:12;100657.03;;;4.74;69.74
7180;BME280;3631;42.152;24.756;2023-02-15T02:25:17;100654.38;;;4.66;70.18
7180;BME280;3631;42.152;24.756;2023-02-15T02:27:58;100657.78;;;4.65;70.59
7180;BME280;3631;42.152;24.756;2023-02-15T02:31:02;100661.06;;;4.55;71.02
7180;BME280;3631;42.152;24.756;2023-02-15T02:33:52;100661.06;;;4.55;71.03
7180;BME280;3631;42.152;24.756;2023-02-15T02:36:26;100650.72;;;4.49;71.29
7180;BME280;3631;42.152;24.756;2023-02-15T02:39:05;100659.41;;;4.59;70.82
7180;BME280;3631;42.152;24.756;2023-02-15T02:41:38;100663.78;;;4.66;70.75
7180;BME280;3631;42.152;24.756;2023-02-15T02:44:15;100660.28;;;4.59;70.83
7180;BME280;3631;42.152;24.756;2023-02-15T02:46:48;100665.34;;;4.55;70.78
7180;BME280;3631;42.152;24.756;2023-02-15T02:49:29;100667.13;;;4.59;70.75
7180;BME280;3631;42.152;24.756;2023-02-15T02:51:58;100660.34;;;4.62;70.65
7180;BME280;3631;42.152;24.756;2023-02-15T02:54:27;100657.78;;;4.65;70.41
7180;BME280;3631;42.152;24.756;2023-02-15T02:56:56;100663.84;;;4.69;69.95
7180;BME280;3631;42.152;24.756;2023-02-15T02:59:29;100656.97;;;4.68;69.93
7180;BME280;3631;42.152;24.756;2023-02-15T03:02:00;100662.09;;;4.68;69.31
7180;BME280;3631;42.152;24.756;2023-02-15T03:04:33;100662.91;;;4.64;69.30
7180;BME280;3631;42.152;24.756;2023-02-15T03:07:05;100661.97;;;4.57;69.86
7180;BME280;3631;42.152;24.756;2023-02-15T03:09:36;100662.78;;;4.55;69.88
7180;BME280;3631;42.152;24.756;2023-02-15T03:12:09;100667.88;;;4.52;74.77
7180;BME280;3631;42.152;24.756;2023-02-15T03:14:38;100672.28;;;4.59;73.84
7180;BME280;3631;42.152;24.756;2023-02-15T03:17:07;100678.28;;;4.59;71.35
7180;BME280;3631;42.152;24.756;2023-02-15T03:19:37;100674.69;;;4.48;71.20
7180;BME280;3631;42.152;24.756;2023-02-15T03:22:08;100679.03;;;4.51;70.92
7180;BME280;3631;42.152;24.756;2023-02-15T03:24:41;100672.16;;;4.53;70.61
7180;BME280;3631;42.152;24.756;2023-02-15T03:27:13;100669.59;;;4.53;71.03
7180;BME280;3631;42.152;24.756;2023-02-15T03:29:45;100670.47;;;4.53;71.05
7180;BME280;3631;42.152;24.756;2023-02-15T03:32:14;100669.66;;;4.56;70.87
7180;BME280;3631;42.152;24.756;2023-02-15T03:34:43;100660.09;;;4.47;71.03
7180;BME280;3631;42.152;24.756;2023-02-15T03:37:13;100666.91;;;4.44;71.62
7180;BME280;3631;42.152;24.756;2023-02-15T03:39:45;100670.38;;;4.46;71.56
7180;BME280;3631;42.152;24.756;2023-02-15T03:42:18;100666.84;;;4.41;72.79
7180;BME280;3631;42.152;24.756;2023-02-15T03:44:50;100668.59;;;4.42;72.29
7180;BME280;3631;42.152;24.756;2023-02-15T03:47:21;100654.72;;;4.30;72.34
7180;BME280;3631;42.152;24.756;2023-02-15T03:49:54;100686.66;;;4.46;72.86
7180;BME280;3631;42.152;24.756;2023-02-15T03:52:23;100666.06;;;4.45;71.27
7180;BME280;3631;42.152;24.756;2023-02-15T03:54:51;100676.50;;;4.55;70.79
7180;BME280;3631;42.152;24.756;2023-02-15T03:57:19;100666.97;;;4.47;70.81
7180;BME280;3631;42.152;24.756;2023-02-15T04:00:09;100685.16;;;4.60;70.90
7180;BME280;3631;42.152;24.756;2023-02-15T04:03:09;100687.78;;;4.65;70.50
7180;BME280;3631;42.152;24.756;2023-02-15T04:05:39;100687.75;;;4.62;70.96
7180;BME280;3631;42.152;24.756;2023-02-15T04:08:06;100685.91;;;4.55;71.87
7180;BME280;3631;42.152;24.756;2023-02-15T04:10:33;100698.00;;;4.60;71.48
7180;BME280;3631;42.152;24.756;2023-02-15T04:13:17;100686.00;;;4.59;71.65
7180;BME280;3631;42.152;24.756;2023-02-15T04:15:44;100684.28;;;4.60;71.71
7180;BME280;3631;42.152;24.756;2023-02-15T04:18:28;100686.03;;;4.61;71.74
7180;BME280;3631;42.152;24.756;2023-02-15T04:21:14;100693.72;;;4.59;71.23
7180;BME280;3631;42.152;24.756;2023-02-15T04:23:58;100692.91;;;4.65;70.94
7180;BME280;3631;42.152;24.756;2023-02-15T04:26:42;100686.03;;;4.64;70.75
7180;BME280;3631;42.152;24.756;2023-02-15T04:29:09;100693.75;;;4.62;71.16
7180;BME280;3631;42.152;24.756;2023-02-15T04:31:36;100699.84;;;4.69;70.17
7180;BME280;3631;42.152;24.756;2023-02-15T04:34:03;100697.00;;;4.52;70.74
7180;BME280;3631;42.152;24.756;2023-02-15T04:36:31;100714.72;;;4.32;71.49
7180;BME280;3631;42.152;24.756;2023-02-15T04:38:58;100703.69;;;4.38;71.85
7180;BME280;3631;42.152;24.756;2023-02-15T04:41:25;100697.56;;;4.31;71.62
7180;BME280;3631;42.152;24.756;2023-02-15T04:43:52;100714.91;;;4.45;70.80
7180;BME280;3631;42.152;24.756;2023-02-15T04:46:19;100714.13;;;4.49;70.77
7180;BME280;3631;42.152;24.756;2023-02-15T04:48:46;100718.38;;;4.47;70.19
7180;BME280;3631;42.152;24.756;2023-02-15T04:51:13;100718.09;;;4.28;71.52
7180;BME280;3631;42.152;24.756;2023-02-15T04:53:41;100727.50;;;4.29;71.56
7180;BME280;3631;42.152;24.756;2023-02-15T04:56:08;100730.94;;;4.28;71.10
7180;BME280;3631;42.152;24.756;2023-02-15T04:58:35;100734.47;;;4.35;70.77
7180;BME280;3631;42.152;24.756;2023-02-15T05:01:02;100743.63;;;4.19;73.15
7180;BME280;3631;42.152;24.756;2023-02-15T05:03:29;100735.22;;;4.29;72.03
7180;BME280;3631;42.152;24.756;2023-02-15T05:05:56;100737.06;;;4.36;71.62
7180;BME280;3631;42.152;24.756;2023-02-15T05:08:23;100737.06;;;4.36;72.92
7180;BME280;3631;42.152;24.756;2023-02-15T05:10:51;100740.56;;;4.40;72.04
7180;BME280;3631;42.152;24.756;2023-02-15T05:13:18;100744.00;;;4.42;71.21
7180;BME280;3631;42.152;24.756;2023-02-15T05:15:47;100749.16;;;4.44;71.18
7180;BME280;3631;42.152;24.756;2023-02-15T05:18:15;100752.66;;;4.47;70.93
7180;BME280;3631;42.152;24.756;2023-02-15T05:20:42;100767.31;;;4.54;70.64
7180;BME280;3631;42.152;24.756;2023-02-15T05:23:09;100764.72;;;4.50;70.38
7180;BME280;3631;42.152;24.756;2023-02-15T05:25:36;100758.78;;;4.55;70.40
7180;BME280;3631;42.152;24.756;2023-02-15T05:28:23;100763.97;;;4.58;69.75
7180;BME280;3631;42.152;24.756;2023-02-15T05:30:53;100766.56;;;4.60;69.81
7180;BME280;3631;42.152;24.756;2023-02-15T05:33:26;100770.91;;;4.64;70.12
7180;BME280;3631;42.152;24.756;2023-02-15T05:35:53;100775.19;;;4.62;69.85
7180;BME280;3631;42.152;24.756;2023-02-15T05:38:20;100781.09;;;4.56;70.85
7180;BME280;3631;42.152;24.756;2023-02-15T05:40:46;100751.03;;;4.54;70.16
7180;BME280;3631;42.152;24.756;2023-02-15T05:43:13;100763.28;;;4.70;70.16
7180;BME280;3631;42.152;24.756;2023-02-15T05:45:44;100786.66;;;4.84;69.34
7180;BME280;3631;42.152;24.756;2023-02-15T05:48:11;100780.75;;;4.91;69.36
7180;BME280;3631;42.152;24.756;2023-02-15T05:50:38;100780.81;;;4.95;68.82
7180;BME280;3631;42.152;24.756;2023-02-15T05:53:05;100790.44;;;5.10;68.45
7180;BME280;3631;42.152;24.756;2023-02-15T05:55:32;100791.28;;;5.07;68.34
7180;BME280;3631;42.152;24.756;2023-02-15T05:57:59;100793.16;;;5.21;68.30
7180;BME280;3631;42.152;24.756;2023-02-15T06:00:25;100796.63;;;5.23;67.84
7180;BME280;3631;42.152;24.756;2023-02-15T06:02:54;100799.19;;;5.23;67.68
7180;BME280;3631;42.152;24.756;2023-02-15T06:05:21;100772.50;;;5.15;67.70
7180;BME280;3631;42.152;24.756;2023-02-15T06:07:48;100800.44;;;5.52;67.07
7180;BME280;3631;42.152;24.756;2023-02-15T06:10:15;100790.59;;;5.92;65.63
7180;BME280;3631;42.152;24.756;2023-02-15T06:12:43;100805.34;;;7.09;63.32
7180;BME280;3631;42.152;24.756;2023-02-15T06:15:10;100806.66;;;8.77;57.93
7180;BME280;3631;42.152;24.756;2023-02-15T06:17:37;100816.28;;;10.53;52.28
7180;BME280;3631;42.152;24.756;2023-02-15T06:20:06;100822.88;;;11.71;48.14
7180;BME280;3631;42.152;24.756;2023-02-15T06:22:33;100823.13;;;12.73;45.28
7180;BME280;3631;42.152;24.756;2023-02-15T06:25:00;100826.84;;;13.97;43.35
7180;BME280;3631;42.152;24.756;2023-02-15T06:27:27;100838.56;;;14.57;41.43
7180;BME280;3631;42.152;24.756;2023-02-15T06:29:54;100831.22;;;15.37;39.64
7180;BME280;3631;42.152;24.756;2023-02-15T06:32:21;100840.06;;;16.24;37.21
7180;BME280;3631;42.152;24.756;2023-02-15T06:34:48;100822.19;;;16.65;36.28
7180;BME280;3631;42.152;24.756;2023-02-15T06:37:16;100833.63;;;17.38;35.10
7180;BME280;3631;42.152;24.756;2023-02-15T06:39:43;100843.63;;;18.22;34.23
7180;BME280;3631;42.152;24.756;2023-02-15T06:42:10;100843.69;;;18.21;33.64
7180;BME280;3631;42.152;24.756;2023-02-15T06:44:37;100841.91;;;17.99;33.77
7180;BME280;3631;42.152;24.756;2023-02-15T06:47:04;100840.19;;;17.02;34.72
7180;BME280;3631;42.152;24.756;2023-02-15T06:49:30;100838.34;;;15.65;36.29
7180;BME280;3631;42.152;24.756;2023-02-15T06:51:57;100838.06;;;14.78;37.66
7180;BME280;3631;42.152;24.756;2023-02-15T06:54:26;100838.25;;;13.52;40.12
7180;BME280;3631;42.152;24.756;2023-02-15T06:56:53;100831.00;;;12.70;41.95
7180;BME280;3631;42.152;24.756;2023-02-15T06:59:19;100836.22;;;12.12;43.49
7180;BME280;3631;42.152;24.756;2023-02-15T07:01:47;100841.84;;;11.82;44.44
7180;BME280;3631;42.152;24.756;2023-02-15T07:04:14;100836.91;;;11.59;44.81
7180;BME280;3631;42.152;24.756;2023-02-15T07:06:41;100824.41;;;11.12;45.84
7180;BME280;3631;42.152;24.756;2023-02-15T07:09:08;100812.50;;;10.93;46.64
7180;BME280;3631;42.152;24.756;2023-02-15T07:11:37;100808.28;;;10.76;46.59
7180;BME280;3631;42.152;24.756;2023-02-15T07:14:21;100820.47;;;10.71;47.38
7180;BME280;3631;42.152;24.756;2023-02-15T07:16:48;100822.34;;;10.54;47.38
7180;BME280;3631;42.152;24.756;2023-02-15T07:19:15;100822.41;;;10.42;48.07
7180;BME280;3631;42.152;24.756;2023-02-15T07:21:42;100812.19;;;10.25;48.28
7180;BME280;3631;42.152;24.756;2023-02-15T07:24:09;100812.13;;;10.30;48.17
7180;BME280;3631;42.152;24.756;2023-02-15T07:26:37;100819.16;;;10.06;49.29
7180;BME280;3631;42.152;24.756;2023-02-15T07:29:04;100809.69;;;10.02;49.38
7180;BME280;3631;42.152;24.756;2023-02-15T07:31:31;100812.22;;;10.14;49.68
7180;BME280;3631;42.152;24.756;2023-02-15T07:33:58;100817.38;;;10.22;49.34
7180;BME280;3631;42.152;24.756;2023-02-15T07:36:25;100812.25;;;10.07;49.77
7180;BME280;3631;42.152;24.756;2023-02-15T07:38:52;100809.63;;;10.10;49.96
7180;BME280;3631;42.152;24.756;2023-02-15T07:41:19;100811.53;;;9.79;50.15
7180;BME280;3631;42.152;24.756;2023-02-15T07:43:47;100804.69;;;9.61;50.95
7180;BME280;3631;42.152;24.756;2023-02-15T07:46:15;100815.97;;;9.54;50.65
7180;BME280;3631;42.152;24.756;2023-02-15T07:48:43;100816.84;;;9.48;51.03
7180;BME280;3631;42.152;24.756;2023-02-15T07:51:11;100798.78;;;9.36;51.58
7180;BME280;3631;42.152;24.756;2023-02-15T07:53:40;100822.88;;;9.51;52.01
7180;BME280;3631;42.152;24.756;2023-02-15T07:56:10;100822.88;;;9.54;51.89
7180;BME280;3631;42.152;24.756;2023-02-15T07:58:37;100829.75;;;9.64;51.78
7180;BME280;3631;42.152;24.756;2023-02-15T08:01:19;100817.69;;;9.57;51.91
7180;BME280;3631;42.152;24.756;2023-02-15T08:03:46;100820.25;;;9.61;51.82
7180;BME280;3631;42.152;24.756;2023-02-15T08:06:14;100815.09;;;9.55;51.85
7180;BME280;3631;42.152;24.756;2023-02-15T08:08:41;100809.97;;;9.46;52.35
7180;BME280;3631;42.152;24.756;2023-02-15T08:11:16;100805.59;;;9.48;52.25
7180;BME280;3631;42.152;24.756;2023-02-15T08:13:55;100818.59;;;9.45;51.84
7180;BME280;3631;42.152;24.756;2023-02-15T08:16:28;100815.16;;;9.37;52.24
7180;BME280;3631;42.152;24.756;2023-02-15T08:18:56;100816.00;;;9.37;52.74
7180;BME280;3631;42.152;24.756;2023-02-15T08:21:25;100810.00;;;9.29;52.56
7180;BME280;3631;42.152;24.756;2023-02-15T08:23:53;100814.31;;;9.36;52.69
7180;BME280;3631;42.152;24.756;2023-02-15T08:26:20;100817.81;;;9.16;52.59
7180;BME280;3631;42.152;24.756;2023-02-15T08:28:47;100813.50;;;9.19;52.83
7180;BME280;3631;42.152;24.756;2023-02-15T08:31:16;100819.53;;;9.24;52.87
7180;BME280;3631;42.152;24.756;2023-02-15T08:33:45;100801.41;;;9.17;53.46
7180;BME280;3631;42.152;24.756;2023-02-15T08:36:15;100809.97;;;9.41;53.25
7180;BME280;3631;42.152;24.756;2023-02-15T08:38:43;100814.28;;;9.39;52.94
7180;BME280;3631;42.152;24.756;2023-02-15T08:41:14;100822.06;;;9.41;52.91
7180;BME280;3631;42.152;24.756;2023-02-15T08:43:42;100817.75;;;9.48;52.55
7180;BME280;3631;42.152;24.756;2023-02-15T08:46:11;100815.16;;;9.37;52.95
7180;BME280;3631;42.152;24.756;2023-02-15T08:48:38;100815.16;;;9.43;52.99
7180;BME280;3631;42.152;24.756;2023-02-15T08:51:08;100816.06;;;9.31;52.86
7180;BME280;3631;42.152;24.756;2023-02-15T08:53:37;100820.34;;;9.48;52.94
7180;BME280;3631;42.152;24.756;2023-02-15T08:56:04;100824.59;;;9.56;52.60
7180;BME280;3631;42.152;24.756;2023-02-15T08:58:31;100817.66;;;9.60;52.79
7180;BME280;3631;42.152;24.756;2023-02-15T09:00:58;100817.69;;;9.57;52.03
7180;BME280;3631;42.152;24.756;2023-02-15T09:03:27;100823.78;;;9.45;52.81
7180;BME280;3631;42.152;24.756;2023-02-15T09:05:58;100812.50;;;9.58;52.80
7180;BME280;3631;42.152;24.756;2023-02-15T09:08:27;100817.69;;;9.57;53.04
7180;BME280;3631;42.152;24.756;2023-02-15T09:11:04;100816.00;;;9.43;52.41
7180;BME280;3631;42.152;24.756;2023-02-15T09:13:31;100814.28;;;9.45;53.51
7180;BME280;3631;42.152;24.756;2023-02-15T09:16:00;100812.56;;;9.44;53.49
7180;BME280;3631;42.152;24.756;2023-02-15T09:18:27;100781.47;;;9.40;52.98
7180;BME280;3631;42.152;24.756;2023-02-15T09:20:54;100806.47;;;9.59;52.76
7180;BME280;3631;42.152;24.756;2023-02-15T09:23:20;100803.81;;;9.68;52.85
7180;BME280;3631;42.152;24.756;2023-02-15T09:25:49;100796.91;;;9.69;52.66
7180;BME280;3631;42.152;24.756;2023-02-15T09:28:16;100798.59;;;9.77;52.04
7180;BME280;3631;42.152;24.756;2023-02-15T09:30:42;100792.53;;;9.81;51.62
7180;BME280;3631;42.152;24.756;2023-02-15T09:33:09;100795.09;;;9.83;52.17
7180;BME280;3631;42.152;24.756;2023-02-15T09:35:36;100793.34;;;9.85;51.88
7180;BME280;3631;42.152;24.756;2023-02-15T09:38:03;100793.34;;;9.91;51.71
7180;BME280;3631;42.152;24.756;2023-02-15T09:40:32;100790.72;;;9.93;52.07
7180;BME280;3631;42.152;24.756;2023-02-15T09:43:15;100794.13;;;9.99;51.30
7180;BME280;3631;42.152;24.756;2023-02-15T09:46:06;100788.88;;;10.13;50.80
7180;BME280;3631;42.152;24.756;2023-02-15T09:48:41;100776.75;;;10.12;51.51
7180;BME280;3631;42.152;24.756;2023-02-15T09:51:40;100784.53;;;10.13;51.08
7180;BME280;3631;42.152;24.756;2023-02-15T09:54:21;100782.81;;;10.15;51.06
7180;BME280;3631;42.152;24.756;2023-02-15T09:56:52;100764.63;;;10.20;51.21
7180;BME280;3631;42.152;24.756;2023-02-15T09:59:28;100776.66;;;10.27;50.55
7180;BME280;3631;42.152;24.756;2023-02-15T10:02:11;100767.22;;;10.18;51.29
7180;BME280;3631;42.152;24.756;2023-02-15T10:04:59;100762.00;;;10.17;51.34
7180;BME280;3631;42.152;24.756;2023-02-15T10:07:42;100766.34;;;10.23;51.96
7180;BME280;3631;42.152;24.756;2023-02-15T10:10:18;100767.97;;;10.37;51.03
7180;BME280;3631;42.152;24.756;2023-02-15T10:13:13;100761.84;;;10.46;51.03
7180;BME280;3631;42.152;24.756;2023-02-15T10:15:54;100761.75;;;10.55;50.57
7180;BME280;3631;42.152;24.756;2023-02-15T10:18:38;100760.97;;;10.45;50.43
7180;BME280;3631;42.152;24.756;2023-02-15T10:21:15;100752.31;;;10.45;50.00
7180;BME280;3631;42.152;24.756;2023-02-15T10:24:14;100741.09;;;10.40;50.13
7180;BME280;3631;42.152;24.756;2023-02-15T10:26:47;100741.84;;;10.55;49.90
7180;BME280;3631;42.152;24.756;2023-02-15T10:29:24;100746.91;;;10.71;49.21
7180;BME280;3631;42.152;24.756;2023-02-15T10:32:03;100742.56;;;10.71;49.41
7180;BME280;3631;42.152;24.756;2023-02-15T10:34:37;100735.66;;;10.69;49.46
7180;BME280;3631;42.152;24.756;2023-02-15T10:37:19;100735.66;;;10.69;49.20
7180;BME280;3631;42.152;24.756;2023-02-15T10:40:00;100736.47;;;10.72;48.85
7180;BME280;3631;42.152;24.756;2023-02-15T10:42:35;100713.19;;;10.66;47.84
7180;BME280;3631;42.152;24.756;2023-02-15T10:45:12;100669.28;;;10.43;47.55
7180;BME280;3631;42.152;24.756;2023-02-15T10:47:59;100721.81;;;10.68;48.26
7180;BME280;3631;42.152;24.756;2023-02-15T10:50:36;100720.09;;;10.67;48.37
7180;BME280;3631;42.152;24.756;2023-02-15T10:53:16;100716.72;;;10.58;48.55
7180;BME280;3631;42.152;24.756;2023-02-15T10:55:52;100721.94;;;10.56;48.80
7180;BME280;3631;42.152;24.756;2023-02-15T10:58:31;100714.06;;;10.65;48.52
7180;BME280;3631;42.152;24.756;2023-02-15T11:01:07;100720.06;;;10.72;47.71
7180;BME280;3631;42.152;24.756;2023-02-15T11:03:46;100714.06;;;10.65;47.18
7180;BME280;3631;42.152;24.756;2023-02-15T11:06:17;100710.59;;;10.65;48.95
7180;BME280;3631;42.152;24.756;2023-02-15T11:08:47;100706.16;;;10.74;49.64
7180;BME280;3631;42.152;24.756;2023-02-15T11:11:21;100707.03;;;10.73;47.88
7180;BME280;3631;42.152;24.756;2023-02-15T11:13:53;100713.06;;;10.78;48.14
7180;BME280;3631;42.152;24.756;2023-02-15T11:16:26;100699.16;;;10.82;47.00
7180;BME280;3631;42.152;24.756;2023-02-15T11:19:00;100693.00;;;10.91;46.75
7180;BME280;3631;42.152;24.756;2023-02-15T11:21:31;100686.03;;;10.95;46.66
7180;BME280;3631;42.152;24.756;2023-02-15T11:24:09;100698.22;;;10.89;46.74
7180;BME280;3631;42.152;24.756;2023-02-15T11:26:40;100689.41;;;11.04;46.69
7180;BME280;3631;42.152;24.756;2023-02-15T11:29:11;100692.72;;;11.15;46.35
7180;BME280;3631;42.152;24.756;2023-02-15T11:31:43;100675.41;;;11.13;46.24
7180;BME280;3631;42.152;24.756;2023-02-15T11:34:17;100669.41;;;11.08;45.57
7180;BME280;3631;42.152;24.756;2023-02-15T11:36:48;100672.00;;;11.08;45.81
7180;BME280;3631;42.152;24.756;2023-02-15T11:39:17;100664.19;;;11.11;45.86
7180;BME280;3631;42.152;24.756;2023-02-15T11:41:49;100660.69;;;11.13;46.03
7180;BME280;3631;42.152;24.756;2023-02-15T11:44:21;100662.31;;;11.22;45.83
7180;BME280;3631;42.152;24.756;2023-02-15T11:46:50;100659.72;;;11.20;45.60
7180;BME280;3631;42.152;24.756;2023-02-15T11:49:27;100654.47;;;11.26;45.44
7180;BME280;3631;42.152;24.756;2023-02-15T11:51:56;100650.03;;;11.33;45.67
7180;BME280;3631;42.152;24.756;2023-02-15T11:54:27;100652.63;;;11.33;45.41
7180;BME280;3631;42.152;24.756;2023-02-15T11:56:57;100655.09;;;11.42;44.99
7180;BME280;3631;42.152;24.756;2023-02-15T11:59:29;100625.03;;;11.24;44.97
7180;BME280;3631;42.152;24.756;2023-02-15T12:01:58;100649.00;;;11.43;44.92
7180;BME280;3631;42.152;24.756;2023-02-15T12:04:30;100644.78;;;11.38;44.59
7180;BME280;3631;42.152;24.756;2023-02-15T12:07:02;100640.47;;;11.35;44.15
7180;BME280;3631;42.152;24.756;2023-02-15T12:09:35;100629.38;;;11.24;44.80
7180;BME280;3631;42.152;24.756;2023-02-15T12:12:24;100630.97;;;11.31;45.08
7180;BME280;3631;42.152;24.756;2023-02-15T12:14:52;100626.50;;;11.41;44.65
7180;BME280;3631;42.152;24.756;2023-02-15T12:17:21;100629.06;;;11.45;44.54
7180;BME280;3631;42.152;24.756;2023-02-15T12:19:52;100639.41;;;11.48;44.10
7180;BME280;3631;42.152;24.756;2023-02-15T12:22:23;100634.09;;;11.54;43.69
7180;BME280;3631;42.152;24.756;2023-02-15T12:24:53;100643.59;;;11.58;43.32
7180;BME280;3631;42.152;24.756;2023-02-15T12:27:23;100638.38;;;11.60;43.10
7180;BME280;3631;42.152;24.756;2023-02-15T12:29:53;100642.63;;;11.65;43.19
7180;BME280;3631;42.152;24.756;2023-02-15T12:32:24;100625.53;;;11.49;44.99
7180;BME280;3631;42.152;24.756;2023-02-15T12:34:56;100629.78;;;11.55;44.50
7180;BME280;3631;42.152;24.756;2023-02-15T12:37:29;100628.06;;;11.54;44.72
7180;BME280;3631;42.152;24.756;2023-02-15T12:39:59;100626.50;;;11.42;43.62
7180;BME280;3631;42.152;24.756;2023-02-15T12:42:28;100623.81;;;11.48;43.41
7180;BME280;3631;42.152;24.756;2023-02-15T12:44:59;100602.16;;;11.48;42.75
7180;BME280;3631;42.152;24.756;2023-02-15T12:47:27;100628.81;;;11.62;42.70
7180;BME280;3631;42.152;24.756;2023-02-15T12:50:08;100620.09;;;11.63;42.85
7180;BME280;3631;42.152;24.756;2023-02-15T12:52:42;100614.91;;;11.63;42.83
7180;BME280;3631;42.152;24.756;2023-02-15T12:55:18;100583.25;;;11.38;42.92
7180;BME280;3631;42.152;24.756;2023-02-15T12:57:45;100620.22;;;11.57;43.43
7180;BME280;3631;42.152;24.756;2023-02-15T13:00:27;100610.72;;;11.54;43.48
7180;BME280;3631;42.152;24.756;2023-02-15T13:02:58;100617.47;;;11.66;42.92
7180;BME280;3631;42.152;24.756;2023-02-15T13:05:31;100615.69;;;11.70;42.24
7180;BME280;3631;42.152;24.756;2023-02-15T13:08:00;100615.75;;;11.65;42.21
7180;BME280;3631;42.152;24.756;2023-02-15T13:10:30;100614.09;;;11.61;42.46
7180;BME280;3631;42.152;24.756;2023-02-15T13:12:58;100610.72;;;11.54;42.36
7180;BME280;3631;42.152;24.756;2023-02-15T13:15:33;100611.50;;;11.59;42.22
7180;BME280;3631;42.152;24.756;2023-02-15T13:18:02;100600.25;;;11.59;42.00
7180;BME280;3631;42.152;24.756;2023-02-15T13:20:34;100608.19;;;11.50;41.93
7180;BME280;3631;42.152;24.756;2023-02-15T13:23:13;100556.66;;;11.18;42.19
7180;BME280;3631;42.152;24.756;2023-02-15T13:25:47;100586.66;;;11.40;42.42
7180;BME280;3631;42.152;24.756;2023-02-15T13:28:17;100611.66;;;11.50;42.21